sensor_id;sensor_type;location;lat;lon;timestamp;P1;durP1;ratioP1;P2;durP2;ratioP2
15635;SDS011;7917;50.818;6.972;2023-10-09T00:01:01;17.42;;;9.57;;
15635;SDS011;7917;50.818;6.972;2023-10-09T00:03:30;15.18;;;9.70;;
15635;SDS011;7917;50.818;6.972;2023-10-09T00:05:57;16.02;;;9.50;;
15635;SDS011;7917;50.818;6.972;2023-10-09T00:08:26;17.63;;;9.88;;
15635;SDS011;7917;50.818;6.972;2023-10-09T00:10:56;14.18;;;8.85;;
15635;SDS011;7917;50.818;6.972;2023-10-09T00:13:24;15.88;;;9.20;;
15635;SDS011;7917;50.818;6.972;2023-10-09T00:15:55;16.75;;;9.13;;
15635;SDS011;7917;50.818;6.972;2023-10-09T00:18:26;17.38;;;9.77;;
15635;SDS011;7917;50.818;6.972;2023-10-09T00:20:59;17.27;;;9.45;;
15635;SDS011;7917;50.818;6.972;2023-10-09T00:23:36;16.65;;;9.50;;
15635;SDS011;7917;50.818;6.972;2023-10-09T00:26:03;18.63;;;10.57;;
15635;SDS011;7917;50.818;6.972;2023-10-09T00:28:35;21.30;;;9.85;;
15635;SDS011;7917;50.818;6.972;2023-10-09T00:31:02;14.52;;;9.07;;
15635;SDS011;7917;50.818;6.972;2023-10-09T00:33:32;14.20;;;8.88;;
15635;SDS011;7917;50.818;6.972;2023-10-09T00:36:01;17.63;;;10.07;;
15635;SDS011;7917;50.818;6.972;2023-10-09T00:38:35;16.75;;;9.38;;
15635;SDS011;7917;50.818;6.972;2023-10-09T00:41:04;13.57;;;7.97;;
15635;SDS011;7917;50.818;6.972;2023-10-09T00:43:36;16.95;;;9.07;;
15635;SDS011;7917;50.818;6.972;2023-10-09T00:46:04;16.92;;;9.32;;
15635;SDS011;7917;50.818;6.972;2023-10-09T00:48:37;17.35;;;10.00;;
15635;SDS011;7917;50.818;6.972;2023-10-09T00:51:06;19.90;;;9.50;;
15635;SDS011;7917;50.818;6.972;2023-10-09T00:53:42;16.40;;;8.95;;
15635;SDS011;7917;50.818;6.972;2023-10-09T00:56:14;18.67;;;9.25;;
15635;SDS011;7917;50.818;6.972;2023-10-09T00:58:45;16.90;;;9.07;;
15635;SDS011;7917;50.818;6.972;2023-10-09T01:01:12;15.80;;;9.13;;
15635;SDS011;7917;50.818;6.972;2023-10-09T01:03:41;22.05;;;11.02;;
15635;SDS011;7917;50.818;6.972;2023-10-09T01:06:09;20.50;;;9.73;;
15635;SDS011;7917;50.818;6.972;2023-10-09T01:08:46;15.52;;;9.13;;
15635;SDS011;7917;50.818;6.972;2023-10-09T01:11:31;16.17;;;8.25;;
15635;SDS011;7917;50.818;6.972;2023-10-09T01:13:59;14.52;;;9.38;;
15635;SDS011;7917;50.818;6.972;2023-10-09T01:16:37;15.38;;;8.60;;
15635;SDS011;7917;50.818;6.972;2023-10-09T01:19:06;14.80;;;8.93;;
15635;SDS011;7917;50.818;6.972;2023-10-09T01:21:39;16.33;;;9.45;;
15635;SDS011;7917;50.818;6.972;2023-10-09T01:24:06;14.95;;;9.05;;
15635;SDS011;7917;50.818;6.972;2023-10-09T01:26:34;19.63;;;9.00;;
15635;SDS011;7917;50.818;6.972;2023-10-09T01:29:04;16.15;;;8.65;;
15635;SDS011;7917;50.818;6.972;2023-10-09T01:31:35;15.10;;;8.25;;
15635;SDS011;7917;50.818;6.972;2023-10-09T01:34:08;17.38;;;9.98;;
15635;SDS011;7917;50.818;6.972;2023-10-09T01:36:35;13.75;;;9.05;;
15635;SDS011;7917;50.818;6.972;2023-10-09T01:39:04;14.18;;;8.90;;
15635;SDS011;7917;50.818;6.972;2023-10-09T01:41:34;16.40;;;8.15;;
15635;SDS011;7917;50.818;6.972;2023-10-09T01:44:03;15.88;;;9.55;;
15635;SDS011;7917;50.818;6.972;2023-10-09T01:46:35;18.15;;;9.75;;
15635;SDS011;7917;50.818;6.972;2023-10-09T01:49:01;19.50;;;9.38;;
15635;SDS011;7917;50.818;6.972;2023-10-09T01:51:41;15.35;;;9.50;;
15635;SDS011;7917;50.818;6.972;2023-10-09T01:54:08;18.35;;;9.73;;
15635;SDS011;7917;50.818;6.972;2023-10-09T01:56:41;18.83;;;10.45;;
15635;SDS011;7917;50.818;6.972;2023-10-09T01:59:11;20.20;;;10.88;;
15635;SDS011;7917;50.818;6.972;2023-10-09T02:01:38;19.65;;;11.20;;
15635;SDS011;7917;50.818;6.972;2023-10-09T02:04:12;17.92;;;9.70;;
15635;SDS011;7917;50.818;6.972;2023-10-09T02:06:41;15.75;;;10.30;;
15635;SDS011;7917;50.818;6.972;2023-10-09T02:09:08;21.02;;;11.13;;
15635;SDS011;7917;50.818;6.972;2023-10-09T02:11:44;20.80;;;10.45;;
15635;SDS011;7917;50.818;6.972;2023-10-09T02:14:11;16.40;;;10.50;;
15635;SDS011;7917;50.818;6.972;2023-10-09T02:16:45;16.67;;;10.77;;
15635;SDS011;7917;50.818;6.972;2023-10-09T02:19:27;19.77;;;10.18;;
15635;SDS011;7917;50.818;6.972;2023-10-09T02:21:55;19.00;;;9.77;;
15635;SDS011;7917;50.818;6.972;2023-10-09T02:24:24;16.30;;;10.23;;
15635;SDS011;7917;50.818;6.972;2023-10-09T02:27:07;19.50;;;10.23;;
15635;SDS011;7917;50.818;6.972;2023-10-09T02:29:35;17.70;;;11.32;;
15635;SDS011;7917;50.818;6.972;2023-10-09T02:32:03;21.20;;;10.95;;
15635;SDS011;7917;50.818;6.972;2023-10-09T02:34:39;18.38;;;10.55;;
15635;SDS011;7917;50.818;6.972;2023-10-09T02:37:11;20.17;;;10.18;;
15635;SDS011;7917;50.818;6.972;2023-10-09T02:39:39;20.60;;;11.13;;
15635;SDS011;7917;50.818;6.972;2023-10-09T02:42:12;21.55;;;10.30;;
15635;SDS011;7917;50.818;6.972;2023-10-09T02:44:48;17.63;;;10.65;;
15635;SDS011;7917;50.818;6.972;2023-10-09T02:47:16;16.15;;;10.52;;
15635;SDS011;7917;50.818;6.972;2023-10-09T02:49:46;17.00;;;10.52;;
15635;SDS011;7917;50.818;6.972;2023-10-09T02:52:13;19.88;;;10.43;;
15635;SDS011;7917;50.818;6.972;2023-10-09T02:54:44;15.85;;;10.05;;
15635;SDS011;7917;50.818;6.972;2023-10-09T02:57:12;18.23;;;10.60;;
15635;SDS011;7917;50.818;6.972;2023-10-09T02:59:47;17.77;;;10.57;;
15635;SDS011;7917;50.818;6.972;2023-10-09T03:05:38;18.88;;;10.13;;
15635;SDS011;7917;50.818;6.972;2023-10-09T03:08:07;13.77;;;9.30;;
15635;SDS011;7917;50.818;6.972;2023-10-09T03:10:38;16.35;;;9.30;;
15635;SDS011;7917;50.818;6.972;2023-10-09T03:13:04;17.63;;;9.93;;
15635;SDS011;7917;50.818;6.972;2023-10-09T03:15:31;19.38;;;9.15;;
15635;SDS011;7917;50.818;6.972;2023-10-09T03:18:01;17.50;;;9.43;;
15635;SDS011;7917;50.818;6.972;2023-10-09T03:20:29;19.92;;;10.05;;
15635;SDS011;7917;50.818;6.972;2023-10-09T03:22:57;19.90;;;9.68;;
15635;SDS011;7917;50.818;6.972;2023-10-09T03:25:26;14.40;;;9.20;;
15635;SDS011;7917;50.818;6.972;2023-10-09T03:27:54;14.55;;;8.27;;
15635;SDS011;7917;50.818;6.972;2023-10-09T03:30:22;15.27;;;9.75;;
15635;SDS011;7917;50.818;6.972;2023-10-09T03:32:48;16.58;;;9.35;;
15635;SDS011;7917;50.818;6.972;2023-10-09T03:35:16;18.25;;;9.73;;
15635;SDS011;7917;50.818;6.972;2023-10-09T03:37:50;18.60;;;9.65;;
15635;SDS011;7917;50.818;6.972;2023-10-09T03:40:22;14.57;;;9.73;;
15635;SDS011;7917;50.818;6.972;2023-10-09T03:42:49;16.90;;;9.55;;
15635;SDS011;7917;50.818;6.972;2023-10-09T03:45:16;16.73;;;9.32;;
15635;SDS011;7917;50.818;6.972;2023-10-09T03:47:50;16.48;;;9.13;;
15635;SDS011;7917;50.818;6.972;2023-10-09T03:50:22;14.45;;;10.15;;
15635;SDS011;7917;50.818;6.972;2023-10-09T03:52:54;14.40;;;10.05;;
15635;SDS011;7917;50.818;6.972;2023-10-09T03:55:21;17.73;;;8.82;;
15635;SDS011;7917;50.818;6.972;2023-10-09T03:57:53;17.00;;;9.68;;
15635;SDS011;7917;50.818;6.972;2023-10-09T04:00:23;20.30;;;9.45;;
15635;SDS011;7917;50.818;6.972;2023-10-09T04:02:53;15.13;;;8.77;;
15635;SDS011;7917;50.818;6.972;2023-10-09T04:05:20;15.77;;;9.57;;
15635;SDS011;7917;50.818;6.972;2023-10-09T04:07:46;16.70;;;10.10;;
15635;SDS011;7917;50.818;6.972;2023-10-09T04:10:14;16.65;;;10.32;;
15635;SDS011;7917;50.818;6.972;2023-10-09T04:12:58;15.07;;;9.65;;
15635;SDS011;7917;50.818;6.972;2023-10-09T04:15:26;16.42;;;9.70;;
15635;SDS011;7917;50.818;6.972;2023-10-09T04:17:55;13.38;;;9.05;;
15635;SDS011;7917;50.818;6.972;2023-10-09T04:20:22;17.13;;;9.98;;
15635;SDS011;7917;50.818;6.972;2023-10-09T04:23:33;17.05;;;10.02;;
15635;SDS011;7917;50.818;6.972;2023-10-09T04:26:01;17.00;;;9.82;;
15635;SDS011;7917;50.818;6.972;2023-10-09T04:28:36;12.98;;;8.20;;
15635;SDS011;7917;50.818;6.972;2023-10-09T04:31:03;16.98;;;9.25;;
15635;SDS011;7917;50.818;6.972;2023-10-09T04:33:32;17.60;;;9.95;;
15635;SDS011;7917;50.818;6.972;2023-10-09T04:36:08;15.10;;;9.45;;
15635;SDS011;7917;50.818;6.972;2023-10-09T04:38:42;15.07;;;9.95;;
15635;SDS011;7917;50.818;6.972;2023-10-09T04:41:20;16.67;;;8.98;;
15635;SDS011;7917;50.818;6.972;2023-10-09T04:43:53;17.25;;;9.50;;
15635;SDS011;7917;50.818;6.972;2023-10-09T04:46:30;15.70;;;8.85;;
15635;SDS011;7917;50.818;6.972;2023-10-09T04:49:09;15.18;;;9.98;;
15635;SDS011;7917;50.818;6.972;2023-10-09T04:51:52;18.67;;;9.15;;
15635;SDS011;7917;50.818;6.972;2023-10-09T04:54:30;13.90;;;8.90;;
15635;SDS011;7917;50.818;6.972;2023-10-09T04:57:04;12.85;;;8.07;;
15635;SDS011;7917;50.818;6.972;2023-10-09T04:59:43;15.90;;;8.15;;
15635;SDS011;7917;50.818;6.972;2023-10-09T05:02:14;12.40;;;7.18;;
15635;SDS011;7917;50.818;6.972;2023-10-09T05:04:44;12.82;;;8.13;;
15635;SDS011;7917;50.818;6.972;2023-10-09T05:07:16;14.32;;;8.45;;
15635;SDS011;7917;50.818;6.972;2023-10-09T05:09:49;12.85;;;7.85;;
15635;SDS011;7917;50.818;6.972;2023-10-09T05:12:22;13.02;;;7.50;;
15635;SDS011;7917;50.818;6.972;2023-10-09T05:14:52;14.90;;;7.30;;
15635;SDS011;7917;50.818;6.972;2023-10-09T05:17:34;13.40;;;8.07;;
15635;SDS011;7917;50.818;6.972;2023-10-09T05:20:03;13.90;;;7.75;;
15635;SDS011;7917;50.818;6.972;2023-10-09T05:22:54;13.13;;;7.82;;
15635;SDS011;7917;50.818;6.972;2023-10-09T05:25:40;13.32;;;8.30;;
15635;SDS011;7917;50.818;6.972;2023-10-09T05:28:19;15.07;;;7.32;;
15635;SDS011;7917;50.818;6.972;2023-10-09T05:31:05;14.10;;;7.38;;
15635;SDS011;7917;50.818;6.972;2023-10-09T05:33:34;13.80;;;7.82;;
15635;SDS011;7917;50.818;6.972;2023-10-09T05:36:02;16.10;;;8.40;;
15635;SDS011;7917;50.818;6.972;2023-10-09T05:38:40;14.60;;;8.20;;
15635;SDS011;7917;50.818;6.972;2023-10-09T05:41:11;18.55;;;7.70;;
15635;SDS011;7917;50.818;6.972;2023-10-09T05:43:53;17.10;;;7.88;;
15635;SDS011;7917;50.818;6.972;2023-10-09T05:46:37;13.07;;;7.78;;
15635;SDS011;7917;50.818;6.972;2023-10-09T05:49:15;10.82;;;7.55;;
15635;SDS011;7917;50.818;6.972;2023-10-09T05:51:45;15.70;;;8.30;;
15635;SDS011;7917;50.818;6.972;2023-10-09T05:54:19;14.30;;;8.45;;
15635;SDS011;7917;50.818;6.972;2023-10-09T05:57:04;12.38;;;8.02;;
15635;SDS011;7917;50.818;6.972;2023-10-09T05:59:49;9.60;;;7.63;;
15635;SDS011;7917;50.818;6.972;2023-10-09T06:02:30;12.43;;;7.40;;
15635;SDS011;7917;50.818;6.972;2023-10-09T06:05:16;12.48;;;7.57;;
15635;SDS011;7917;50.818;6.972;2023-10-09T06:08:00;15.50;;;7.30;;
15635;SDS011;7917;50.818;6.972;2023-10-09T06:10:33;12.27;;;7.20;;
15635;SDS011;7917;50.818;6.972;2023-10-09T06:13:05;12.80;;;6.82;;
15635;SDS011;7917;50.818;6.972;2023-10-09T06:15:36;12.45;;;6.88;;
15635;SDS011;7917;50.818;6.972;2023-10-09T06:18:34;16.48;;;7.30;;
15635;SDS011;7917;50.818;6.972;2023-10-09T06:21:01;13.02;;;7.18;;
15635;SDS011;7917;50.818;6.972;2023-10-09T06:23:55;13.57;;;6.95;;
15635;SDS011;7917;50.818;6.972;2023-10-09T06:26:39;10.95;;;6.55;;
15635;SDS011;7917;50.818;6.972;2023-10-09T06:29:16;11.00;;;6.80;;
15635;SDS011;7917;50.818;6.972;2023-10-09T06:31:59;10.45;;;6.82;;
15635;SDS011;7917;50.818;6.972;2023-10-09T06:34:42;12.32;;;6.65;;
15635;SDS011;7917;50.818;6.972;2023-10-09T06:37:11;9.38;;;6.38;;
15635;SDS011;7917;50.818;6.972;2023-10-09T06:40:00;10.15;;;6.03;;
15635;SDS011;7917;50.818;6.972;2023-10-09T06:42:50;10.82;;;6.35;;
15635;SDS011;7917;50.818;6.972;2023-10-09T06:45:21;11.30;;;6.18;;
15635;SDS011;7917;50.818;6.972;2023-10-09T06:48:09;11.23;;;6.68;;
15635;SDS011;7917;50.818;6.972;2023-10-09T06:50:56;14.05;;;6.72;;
15635;SDS011;7917;50.818;6.972;2023-10-09T06:53:30;14.40;;;7.47;;
15635;SDS011;7917;50.818;6.972;2023-10-09T06:56:11;9.82;;;6.13;;
15635;SDS011;7917;50.818;6.972;2023-10-09T06:58:48;10.70;;;6.47;;
15635;SDS011;7917;50.818;6.972;2023-10-09T07:01:15;10.52;;;6.47;;
15635;SDS011;7917;50.818;6.972;2023-10-09T07:04:04;8.50;;;6.25;;
15635;SDS011;7917;50.818;6.972;2023-10-09T07:06:43;12.77;;;6.22;;
15635;SDS011;7917;50.818;6.972;2023-10-09T07:09:23;14.93;;;7.18;;
15635;SDS011;7917;50.818;6.972;2023-10-09T07:11:53;15.07;;;6.93;;
15635;SDS011;7917;50.818;6.972;2023-10-09T07:14:24;13.10;;;6.53;;
15635;SDS011;7917;50.818;6.972;2023-10-09T07:17:09;10.60;;;6.28;;
15635;SDS011;7917;50.818;6.972;2023-10-09T07:19:47;11.77;;;6.65;;
15635;SDS011;7917;50.818;6.972;2023-10-09T07:22:37;12.20;;;6.47;;
15635;SDS011;7917;50.818;6.972;2023-10-09T07:25:22;17.10;;;6.88;;
15635;SDS011;7917;50.818;6.972;2023-10-09T07:28:08;11.10;;;6.15;;
15635;SDS011;7917;50.818;6.972;2023-10-09T07:30:53;13.07;;;6.78;;
15635;SDS011;7917;50.818;6.972;2023-10-09T07:33:23;10.60;;;6.90;;
15635;SDS011;7917;50.818;6.972;2023-10-09T07:36:11;13.63;;;7.22;;
15635;SDS011;7917;50.818;6.972;2023-10-09T07:38:39;15.35;;;7.55;;
15635;SDS011;7917;50.818;6.972;2023-10-09T07:41:10;8.88;;;6.68;;
15635;SDS011;7917;50.818;6.972;2023-10-09T07:43:55;11.82;;;6.93;;
15635;SDS011;7917;50.818;6.972;2023-10-09T07:46:44;14.55;;;7.25;;
15635;SDS011;7917;50.818;6.972;2023-10-09T07:49:25;14.25;;;7.10;;
15635;SDS011;7917;50.818;6.972;2023-10-09T07:51:53;17.00;;;8.32;;
15635;SDS011;7917;50.818;6.972;2023-10-09T07:54:21;12.63;;;7.47;;
15635;SDS011;7917;50.818;6.972;2023-10-09T07:56:58;13.55;;;6.93;;
15635;SDS011;7917;50.818;6.972;2023-10-09T07:59:34;11.82;;;7.40;;
15635;SDS011;7917;50.818;6.972;2023-10-09T08:02:06;14.55;;;8.32;;
15635;SDS011;7917;50.818;6.972;2023-10-09T08:04:39;15.55;;;7.35;;
15635;SDS011;7917;50.818;6.972;2023-10-09T08:07:14;13.50;;;8.00;;
15635;SDS011;7917;50.818;6.972;2023-10-09T08:09:45;17.27;;;7.45;;
15635;SDS011;7917;50.818;6.972;2023-10-09T08:12:13;14.95;;;7.35;;
15635;SDS011;7917;50.818;6.972;2023-10-09T08:14:56;11.80;;;7.85;;
15635;SDS011;7917;50.818;6.972;2023-10-09T08:17:38;18.35;;;7.47;;
15635;SDS011;7917;50.818;6.972;2023-10-09T08:20:05;15.43;;;7.15;;
15635;SDS011;7917;50.818;6.972;2023-10-09T08:22:37;15.40;;;7.30;;
15635;SDS011;7917;50.818;6.972;2023-10-09T08:25:08;11.05;;;7.00;;
15635;SDS011;7917;50.818;6.972;2023-10-09T08:27:53;15.60;;;7.70;;
15635;SDS011;7917;50.818;6.972;2023-10-09T08:30:21;11.02;;;6.93;;
15635;SDS011;7917;50.818;6.972;2023-10-09T08:33:06;12.50;;;7.00;;
15635;SDS011;7917;50.818;6.972;2023-10-09T08:35:51;10.98;;;6.35;;
15635;SDS011;7917;50.818;6.972;2023-10-09T08:38:21;12.15;;;6.65;;
15635;SDS011;7917;50.818;6.972;2023-10-09T08:40:49;15.52;;;6.53;;
15635;SDS011;7917;50.818;6.972;2023-10-09T08:43:20;12.43;;;6.75;;
15635;SDS011;7917;50.818;6.972;2023-10-09T08:45:49;12.65;;;7.22;;
15635;SDS011;7917;50.818;6.972;2023-10-09T08:48:17;19.48;;;6.93;;
15635;SDS011;7917;50.818;6.972;2023-10-09T08:50:49;16.05;;;7.20;;
15635;SDS011;7917;50.818;6.972;2023-10-09T08:53:19;12.50;;;6.85;;
15635;SDS011;7917;50.818;6.972;2023-10-09T08:55:47;12.43;;;6.35;;
15635;SDS011;7917;50.818;6.972;2023-10-09T08:58:15;10.73;;;6.63;;
15635;SDS011;7917;50.818;6.972;2023-10-09T09:00:46;11.02;;;6.88;;
15635;SDS011;7917;50.818;6.972;2023-10-09T09:03:14;10.00;;;6.78;;
15635;SDS011;7917;50.818;6.972;2023-10-09T09:05:45;11.65;;;6.35;;
15635;SDS011;7917;50.818;6.972;2023-10-09T09:08:24;13.48;;;6.25;;
15635;SDS011;7917;50.818;6.972;2023-10-09T09:10:57;13.95;;;6.88;;
15635;SDS011;7917;50.818;6.972;2023-10-09T09:13:37;10.38;;;6.43;;
15635;SDS011;7917;50.818;6.972;2023-10-09T09:16:14;10.93;;;5.75;;
15635;SDS011;7917;50.818;6.972;2023-10-09T09:18:49;12.23;;;6.20;;
15635;SDS011;7917;50.818;6.972;2023-10-09T09:21:26;9.80;;;5.88;;
15635;SDS011;7917;50.818;6.972;2023-10-09T09:23:56;11.32;;;6.25;;
15635;SDS011;7917;50.818;6.972;2023-10-09T09:26:36;11.43;;;5.93;;
15635;SDS011;7917;50.818;6.972;2023-10-09T09:29:10;10.45;;;5.75;;
15635;SDS011;7917;50.818;6.972;2023-10-09T09:31:38;9.13;;;6.03;;
15635;SDS011;7917;50.818;6.972;2023-10-09T09:34:18;13.68;;;5.82;;
15635;SDS011;7917;50.818;6.972;2023-10-09T09:36:51;11.52;;;6.20;;
15635;SDS011;7917;50.818;6.972;2023-10-09T09:39:20;15.20;;;6.10;;
15635;SDS011;7917;50.818;6.972;2023-10-09T09:41:54;14.48;;;6.25;;
15635;SDS011;7917;50.818;6.972;2023-10-09T09:44:22;11.77;;;6.05;;
15635;SDS011;7917;50.818;6.972;2023-10-09T09:46:56;12.75;;;6.43;;
15635;SDS011;7917;50.818;6.972;2023-10-09T09:49:26;9.57;;;5.63;;
15635;SDS011;7917;50.818;6.972;2023-10-09T09:54:28;10.85;;;6.00;;
15635;SDS011;7917;50.818;6.972;2023-10-09T09:56:59;10.30;;;6.05;;
15635;SDS011;7917;50.818;6.972;2023-10-09T09:59:33;9.77;;;5.25;;
15635;SDS011;7917;50.818;6.972;2023-10-09T10:02:07;11.00;;;5.82;;
15635;SDS011;7917;50.818;6.972;2023-10-09T10:04:36;12.07;;;6.43;;
15635;SDS011;7917;50.818;6.972;2023-10-09T10:07:07;8.27;;;5.78;;
15635;SDS011;7917;50.818;6.972;2023-10-09T10:09:35;13.00;;;5.60;;
15635;SDS011;7917;50.818;6.972;2023-10-09T10:12:05;12.52;;;5.75;;
15635;SDS011;7917;50.818;6.972;2023-10-09T10:17:23;9.23;;;5.22;;
15635;SDS011;7917;50.818;6.972;2023-10-09T10:20:03;12.02;;;5.78;;
15635;SDS011;7917;50.818;6.972;2023-10-09T10:23:15;7.28;;;5.38;;
15635;SDS011;7917;50.818;6.972;2023-10-09T10:25:46;8.75;;;5.72;;
15635;SDS011;7917;50.818;6.972;2023-10-09T10:28:19;11.48;;;5.15;;
15635;SDS011;7917;50.818;6.972;2023-10-09T10:30:54;12.07;;;5.32;;
15635;SDS011;7917;50.818;6.972;2023-10-09T10:36:35;11.43;;;4.88;;
15635;SDS011;7917;50.818;6.972;2023-10-09T10:39:08;7.82;;;5.10;;
15635;SDS011;7917;50.818;6.972;2023-10-09T10:41:36;8.23;;;4.75;;
15635;SDS011;7917;50.818;6.972;2023-10-09T10:44:23;8.00;;;5.00;;
15635;SDS011;7917;50.818;6.972;2023-10-09T10:47:03;9.38;;;4.38;;
15635;SDS011;7917;50.818;6.972;2023-10-09T10:49:43;7.65;;;5.10;;
15635;SDS011;7917;50.818;6.972;2023-10-09T10:52:19;10.35;;;4.72;;
15635;SDS011;7917;50.818;6.972;2023-10-09T10:54:47;8.15;;;4.00;;
15635;SDS011;7917;50.818;6.972;2023-10-09T10:57:34;8.98;;;4.18;;
15635;SDS011;7917;50.818;6.972;2023-10-09T11:00:26;7.65;;;4.43;;
15635;SDS011;7917;50.818;6.972;2023-10-09T11:03:16;10.00;;;4.90;;
15635;SDS011;7917;50.818;6.972;2023-10-09T11:05:55;12.77;;;4.65;;
15635;SDS011;7917;50.818;6.972;2023-10-09T11:08:40;9.32;;;4.70;;
15635;SDS011;7917;50.818;6.972;2023-10-09T11:11:19;9.68;;;4.57;;
15635;SDS011;7917;50.818;6.972;2023-10-09T11:13:47;8.25;;;4.55;;
15635;SDS011;7917;50.818;6.972;2023-10-09T11:16:19;9.65;;;4.72;;
15635;SDS011;7917;50.818;6.972;2023-10-09T11:19:07;7.13;;;4.63;;
15635;SDS011;7917;50.818;6.972;2023-10-09T11:21:50;8.15;;;4.75;;
15635;SDS011;7917;50.818;6.972;2023-10-09T11:24:25;6.72;;;4.60;;
15635;SDS011;7917;50.818;6.972;2023-10-09T11:26:58;11.38;;;5.35;;
15635;SDS011;7917;50.818;6.972;2023-10-09T11:29:31;10.93;;;4.88;;
15635;SDS011;7917;50.818;6.972;2023-10-09T11:32:14;10.60;;;5.68;;
15635;SDS011;7917;50.818;6.972;2023-10-09T11:34:43;9.73;;;5.43;;
15635;SDS011;7917;50.818;6.972;2023-10-09T11:37:18;9.40;;;4.88;;
15635;SDS011;7917;50.818;6.972;2023-10-09T11:40:04;12.77;;;5.85;;
15635;SDS011;7917;50.818;6.972;2023-10-09T11:42:48;12.60;;;6.15;;
15635;SDS011;7917;50.818;6.972;2023-10-09T11:45:25;9.90;;;4.95;;
15635;SDS011;7917;50.818;6.972;2023-10-09T11:47:55;12.18;;;5.38;;
15635;SDS011;7917;50.818;6.972;2023-10-09T11:53:18;7.20;;;4.80;;
15635;SDS011;7917;50.818;6.972;2023-10-09T11:55:59;8.40;;;5.15;;
15635;SDS011;7917;50.818;6.972;2023-10-09T11:58:26;8.40;;;4.60;;
15635;SDS011;7917;50.818;6.972;2023-10-09T12:00:53;7.53;;;4.45;;
15635;SDS011;7917;50.818;6.972;2023-10-09T12:03:25;7.55;;;4.65;;
15635;SDS011;7917;50.818;6.972;2023-10-09T12:05:58;10.32;;;4.32;;
15635;SDS011;7917;50.818;6.972;2023-10-09T12:08:30;9.93;;;4.82;;
15635;SDS011;7917;50.818;6.972;2023-10-09T12:10:58;8.50;;;4.25;;
15635;SDS011;7917;50.818;6.972;2023-10-09T12:13:28;11.45;;;4.75;;
15635;SDS011;7917;50.818;6.972;2023-10-09T12:15:56;9.20;;;4.68;;
15635;SDS011;7917;50.818;6.972;2023-10-09T12:18:23;9.90;;;4.70;;
15635;SDS011;7917;50.818;6.972;2023-10-09T12:20:51;10.63;;;4.13;;
15635;SDS011;7917;50.818;6.972;2023-10-09T12:23:21;9.55;;;5.05;;
15635;SDS011;7917;50.818;6.972;2023-10-09T12:25:53;12.90;;;4.65;;
15635;SDS011;7917;50.818;6.972;2023-10-09T12:28:21;10.30;;;4.05;;
15635;SDS011;7917;50.818;6.972;2023-10-09T12:30:51;9.60;;;4.75;;
15635;SDS011;7917;50.818;6.972;2023-10-09T12:33:18;12.32;;;3.95;;
15635;SDS011;7917;50.818;6.972;2023-10-09T12:35:53;9.15;;;3.88;;
15635;SDS011;7917;50.818;6.972;2023-10-09T12:38:25;11.43;;;3.88;;
15635;SDS011;7917;50.818;6.972;2023-10-09T12:41:01;7.70;;;4.00;;
15635;SDS011;7917;50.818;6.972;2023-10-09T12:43:34;10.18;;;4.30;;
15635;SDS011;7917;50.818;6.972;2023-10-09T12:46:04;11.48;;;4.68;;
15635;SDS011;7917;50.818;6.972;2023-10-09T12:48:32;7.18;;;4.05;;
15635;SDS011;7917;50.818;6.972;2023-10-09T12:50:59;10.55;;;4.20;;
15635;SDS011;7917;50.818;6.972;2023-10-09T12:53:31;10.05;;;4.30;;
15635;SDS011;7917;50.818;6.972;2023-10-09T12:55:58;13.15;;;4.72;;
15635;SDS011;7917;50.818;6.972;2023-10-09T12:58:26;8.32;;;4.38;;
15635;SDS011;7917;50.818;6.972;2023-10-09T13:00:53;13.02;;;4.38;;
15635;SDS011;7917;50.818;6.972;2023-10-09T13:03:19;9.23;;;4.57;;
15635;SDS011;7917;50.818;6.972;2023-10-09T13:05:47;13.27;;;5.18;;
15635;SDS011;7917;50.818;6.972;2023-10-09T13:08:19;6.53;;;4.13;;
15635;SDS011;7917;50.818;6.972;2023-10-09T13:10:47;9.45;;;4.13;;
15635;SDS011;7917;50.818;6.972;2023-10-09T13:13:23;9.20;;;4.60;;
15635;SDS011;7917;50.818;6.972;2023-10-09T13:16:02;11.45;;;4.65;;
15635;SDS011;7917;50.818;6.972;2023-10-09T13:18:31;9.70;;;4.72;;
15635;SDS011;7917;50.818;6.972;2023-10-09T13:20:58;8.73;;;4.00;;
15635;SDS011;7917;50.818;6.972;2023-10-09T13:23:28;9.48;;;4.40;;
15635;SDS011;7917;50.818;6.972;2023-10-09T13:26:04;11.93;;;4.90;;
15635;SDS011;7917;50.818;6.972;2023-10-09T13:28:44;7.47;;;4.10;;
15635;SDS011;7917;50.818;6.972;2023-10-09T13:31:12;9.10;;;4.63;;
15635;SDS011;7917;50.818;6.972;2023-10-09T13:33:40;10.73;;;5.00;;
15635;SDS011;7917;50.818;6.972;2023-10-09T13:36:07;9.73;;;4.68;;
15635;SDS011;7917;50.818;6.972;2023-10-09T13:38:42;13.48;;;4.50;;
15635;SDS011;7917;50.818;6.972;2023-10-09T13:41:09;9.93;;;4.22;;
15635;SDS011;7917;50.818;6.972;2023-10-09T13:43:38;9.25;;;4.70;;
15635;SDS011;7917;50.818;6.972;2023-10-09T13:46:07;11.50;;;4.20;;
15635;SDS011;7917;50.818;6.972;2023-10-09T13:48:35;9.48;;;4.32;;
15635;SDS011;7917;50.818;6.972;2023-10-09T13:51:03;12.10;;;4.72;;
15635;SDS011;7917;50.818;6.972;2023-10-09T13:53:33;7.82;;;4.60;;
15635;SDS011;7917;50.818;6.972;2023-10-09T13:56:00;9.38;;;4.80;;
15635;SDS011;7917;50.818;6.972;2023-10-09T13:58:28;12.00;;;4.82;;
15635;SDS011;7917;50.818;6.972;2023-10-09T14:00:57;8.45;;;4.30;;
15635;SDS011;7917;50.818;6.972;2023-10-09T14:03:25;9.68;;;4.53;;
15635;SDS011;7917;50.818;6.972;2023-10-09T14:05:53;8.38;;;4.40;;
15635;SDS011;7917;50.818;6.972;2023-10-09T14:08:22;11.50;;;4.88;;
15635;SDS011;7917;50.818;6.972;2023-10-09T14:10:51;12.05;;;5.00;;
15635;SDS011;7917;50.818;6.972;2023-10-09T14:13:22;9.63;;;5.07;;
15635;SDS011;7917;50.818;6.972;2023-10-09T14:15:53;11.00;;;4.70;;
15635;SDS011;7917;50.818;6.972;2023-10-09T14:18:21;14.13;;;4.95;;
15635;SDS011;7917;50.818;6.972;2023-10-09T14:20:49;13.02;;;4.82;;
15635;SDS011;7917;50.818;6.972;2023-10-09T14:23:20;13.77;;;4.45;;
15635;SDS011;7917;50.818;6.972;2023-10-09T14:25:47;11.73;;;5.30;;
15635;SDS011;7917;50.818;6.972;2023-10-09T14:28:15;13.40;;;4.82;;
15635;SDS011;7917;50.818;6.972;2023-10-09T14:30:44;13.50;;;5.13;;
15635;SDS011;7917;50.818;6.972;2023-10-09T14:33:15;8.40;;;5.15;;
15635;SDS011;7917;50.818;6.972;2023-10-09T14:35:48;11.00;;;5.00;;
15635;SDS011;7917;50.818;6.972;2023-10-09T14:38:17;8.52;;;3.95;;
15635;SDS011;7917;50.818;6.972;2023-10-09T14:40:51;8.73;;;5.50;;
15635;SDS011;7917;50.818;6.972;2023-10-09T14:43:22;7.57;;;4.53;;
15635;SDS011;7917;50.818;6.972;2023-10-09T14:45:53;9.88;;;4.70;;
15635;SDS011;7917;50.818;6.972;2023-10-09T14:48:20;16.38;;;4.97;;
15635;SDS011;7917;50.818;6.972;2023-10-09T14:50:52;9.05;;;4.60;;
15635;SDS011;7917;50.818;6.972;2023-10-09T14:53:19;12.98;;;5.57;;
15635;SDS011;7917;50.818;6.972;2023-10-09T14:55:46;10.15;;;5.30;;
15635;SDS011;7917;50.818;6.972;2023-10-09T14:58:19;10.38;;;4.75;;
15635;SDS011;7917;50.818;6.972;2023-10-09T15:00:49;10.73;;;5.07;;
15635;SDS011;7917;50.818;6.972;2023-10-09T15:03:16;15.48;;;5.47;;
15635;SDS011;7917;50.818;6.972;2023-10-09T15:05:45;14.80;;;4.85;;
15635;SDS011;7917;50.818;6.972;2023-10-09T15:08:13;13.65;;;4.93;;
15635;SDS011;7917;50.818;6.972;2023-10-09T15:10:46;14.10;;;5.20;;
15635;SDS011;7917;50.818;6.972;2023-10-09T15:13:13;12.93;;;5.25;;
15635;SDS011;7917;50.818;6.972;2023-10-09T15:15:42;11.65;;;5.93;;
15635;SDS011;7917;50.818;6.972;2023-10-09T15:18:09;11.43;;;5.70;;
15635;SDS011;7917;50.818;6.972;2023-10-09T15:20:38;10.30;;;5.82;;
15635;SDS011;7917;50.818;6.972;2023-10-09T15:23:05;10.52;;;4.93;;
15635;SDS011;7917;50.818;6.972;2023-10-09T15:25:34;16.63;;;5.60;;
15635;SDS011;7917;50.818;6.972;2023-10-09T15:28:05;11.43;;;5.65;;
15635;SDS011;7917;50.818;6.972;2023-10-09T15:30:33;10.23;;;5.00;;
15635;SDS011;7917;50.818;6.972;2023-10-09T15:33:03;10.60;;;5.63;;
15635;SDS011;7917;50.818;6.972;2023-10-09T15:35:31;11.27;;;5.20;;
15635;SDS011;7917;50.818;6.972;2023-10-09T15:37:59;11.70;;;5.40;;